Jeletkezz be e-mail címeddel, vagy csatlakozz hozzánk.

Repülési napló #1431

Pilóta
SHC020
Járatszám
SHC026
Járattípus
Cargo
Indulás
Martinique-Aimé-Césaire (TFFF)
Érkezés
Liszt Ferenc International Airport (LHBP) [R116]
Repülőgép
B747-8F (HA-FRI)
Dátum
2015.11.05.
Menetidő
09:04:22
Rakomány
113816 kg
Távolság
4374nm
Hálózat
IVAO (SHA026C)
Státusz
Elfogadva
Járat költségvetés
Teljes bevétel:
(113816 kg * € 6.35)
€ 722 731.60
Üzemanyagköltség:
(108645 kg * € 0.68/kg)
€ 73 878.60
Pilóta fizetése: € 456.80
Egyéb kiadások: € 202 365.00

Útvonal

SESPO 16N60W 26N50W 34N40W 40N30W 45N20W 48N10W ETIKI UN480 REGHI UN585 KOKOS UN491 EPL UM164 LUPEN T107 MIQ UL605 BIBAG Q104 STO UL175 ANEXA

Részletes napló

Fuel Used
108645 kg
Start Fuel
116888 kg
End Fuel
8243 kg
Földetérés
-120 fpm
Oldalszél komponens
0.75 KT (bal)

Részletes napló megtekintése

Pilóta fizetés részletek

Repült órák
€ 406.80
(09.04 * € 45.00)
Online repülés
€ 200.00
(IVAO)
Pontos érkezés
€ 50.00
(4 min)
Overspeed
€ -200.00
Bővebben: Bónuszok és levonások

Megjegyzések

Írta Megjegyzés
Károly Nagy Fatal error on final
METAR LHBP 052230Z VRB01KT 1800 R31R/0350D BR FZBCFG NSC M00/M01 Q1022 NOSIG

Route Map